Time;durP1;ratioP1;P1;durP2;ratioP2;P2;SDS_P1;SDS_P2;PMS_P1;PMS_P2;Temp;Humidity;BMP_temperature;BMP_pressure;BME280_temperature;BME280_humidity;BME280_pressure;Samples;Min_cycle;Max_cycle;Signal;HPM_P1;HPM_P2
2023/05/03 00:01:50;;;;;;;21.00;18.80;;;5.70;99.90;;;;;;5132822;28;20575;-79
2023/05/03 00:04:19;;;;;;;21.13;18.93;;;5.70;99.90;;;;;;5132981;28;20296;-78
2023/05/03 00:06:47;;;;;;;20.53;18.50;;;5.70;99.90;;;;;;5133029;28;20233;-81
2023/05/03 00:09:15;;;;;;;20.30;18.20;;;5.70;99.90;;;;;;5141414;27;20219;-79
2023/05/03 00:11:43;;;;;;;20.47;18.47;;;5.70;99.90;;;;;;5153552;27;20264;-78
2023/05/03 00:14:11;;;;;;;17.90;16.03;;;5.70;99.90;;;;;;5153273;27;20601;-76
2023/05/03 00:16:41;;;;;;;18.13;16.33;;;5.60;99.90;;;;;;5153476;27;20670;-78
2023/05/03 00:19:09;;;;;;;18.07;16.33;;;5.50;99.90;;;;;;5136889;27;20234;-78
2023/05/03 00:21:47;;;;;;;18.57;16.77;;;5.50;99.90;;;;;;5136066;27;20181;-75
2023/05/03 00:24:15;;;;;;;20.13;16.70;;;5.50;99.90;;;;;;5136394;27;20266;-74
2023/05/03 00:26:43;;;;;;;20.40;18.40;;;5.50;99.90;;;;;;5142963;27;20216;-76
2023/05/03 00:29:12;;;;;;;19.57;17.67;;;5.50;99.90;;;;;;5156605;27;20212;-78
2023/05/03 00:31:44;;;;;;;20.30;18.30;;;5.60;99.90;;;;;;5156563;27;20707;-79
2023/05/03 00:34:12;;;;;;;20.73;18.50;;;5.60;99.90;;;;;;5156599;27;20204;-80
2023/05/03 00:36:40;;;;;;;17.93;16.13;;;5.70;99.90;;;;;;5147871;27;20655;-78
2023/05/03 00:39:08;;;;;;;19.23;17.23;;;5.70;99.90;;;;;;5136180;27;20296;-78
2023/05/03 00:41:36;;;;;;;17.80;15.90;;;5.70;99.90;;;;;;5135729;27;20677;-77
2023/05/03 00:44:04;;;;;;;18.17;16.37;;;5.70;99.90;;;;;;5135664;27;20213;-76
2023/05/03 00:46:32;;;;;;;18.07;16.37;;;5.70;99.90;;;;;;5153557;27;20208;-79
2023/05/03 00:49:02;;;;;;;19.73;17.63;;;5.70;99.90;;;;;;5156586;27;20204;-77
2023/05/03 00:51:30;;;;;;;18.73;16.93;;;5.70;99.90;;;;;;5156068;27;20315;-78
2023/05/03 00:53:58;;;;;;;20.03;18.03;;;5.80;99.90;;;;;;5153541;27;20239;-80
2023/05/03 00:56:26;;;;;;;19.43;17.33;;;5.80;99.90;;;;;;5135649;27;20214;-75
2023/05/03 00:58:56;;;;;;;19.47;17.47;;;5.90;99.90;;;;;;5135606;27;20211;-77
2023/05/03 01:01:25;;;;;;;18.47;16.63;;;5.90;99.90;;;;;;5135343;27;20208;-77
2023/05/03 01:03:53;;;;;;;18.10;16.30;;;5.90;99.90;;;;;;5134961;27;20221;-77
2023/05/03 01:06:33;;;;;;;18.00;16.20;;;5.90;99.90;;;;;;5154953;27;20215;-76
2023/05/03 01:09:06;;;;;;;18.17;16.27;;;6.00;99.90;;;;;;5147849;27;20194;-77
2023/05/03 01:11:46;;;;;;;17.17;15.57;;;6.00;99.90;;;;;;5135818;27;20229;-76
2023/05/03 01:14:22;;;;;;;17.07;15.37;;;6.00;99.90;;;;;;5156184;27;20285;-78
2023/05/03 01:16:56;;;;;;;16.97;15.30;;;6.10;99.90;;;;;;5156314;27;20224;-74
2023/05/03 01:19:29;;;;;;;16.80;15.20;;;6.10;99.90;;;;;;5155785;27;20279;-79
2023/05/03 01:22:10;;;;;;;17.37;15.33;;;6.10;99.90;;;;;;5135507;27;20306;-75
2023/05/03 01:24:41;;;;;;;16.70;15.10;;;6.10;99.90;;;;;;5140317;27;20194;-76
2023/05/03 01:27:11;;;;;;;17.67;15.87;;;6.20;99.90;;;;;;5135180;27;20293;-75
2023/05/03 01:37:14;;;;;;;20.43;17.37;;;6.20;99.90;;;;;;5134127;27;20275;-79
2023/05/03 01:39:48;;;;;;;18.93;17.13;;;6.20;99.90;;;;;;5134901;27;20205;-78
2023/05/03 01:42:19;;;;;;;18.40;16.47;;;6.20;99.90;;;;;;5134013;27;20212;-78
2023/05/03 01:44:49;;;;;;;16.97;15.37;;;6.20;99.90;;;;;;5134678;27;20206;-78
2023/05/03 01:47:17;;;;;;;19.10;16.97;;;6.10;99.90;;;;;;5151131;27;20242;-78
2023/05/03 01:49:45;;;;;;;16.70;15.10;;;6.10;99.90;;;;;;5155109;27;20208;-76
2023/05/03 01:52:14;;;;;;;17.60;15.97;;;6.10;99.90;;;;;;5154930;27;20835;-79
2023/05/03 01:54:42;;;;;;;16.77;15.07;;;6.00;99.90;;;;;;5142455;27;20213;-79
2023/05/03 01:57:10;;;;;;;18.23;16.43;;;6.00;99.90;;;;;;5133970;27;20201;-74
2023/05/03 01:59:39;;;;;;;17.20;15.57;;;5.90;99.90;;;;;;5134169;27;20288;-77
2023/05/03 02:02:07;;;;;;;16.17;14.47;;;5.80;99.90;;;;;;5133748;27;20209;-78
2023/05/03 02:04:35;;;;;;;15.83;14.30;;;5.80;99.90;;;;;;5134055;27;20228;-78
2023/05/03 02:07:03;;;;;;;14.77;13.30;;;5.70;99.90;;;;;;5133681;27;20671;-78
2023/05/03 02:09:31;;;;;;;16.90;15.20;;;5.70;99.90;;;;;;5133588;27;20304;-78
2023/05/03 02:11:59;;;;;;;16.60;14.90;;;5.60;99.90;;;;;;5133426;27;20221;-78
2023/05/03 02:14:27;;;;;;;18.47;16.67;;;5.60;99.90;;;;;;5134177;27;20300;-78
2023/05/03 02:16:57;;;;;;;17.10;15.30;;;5.60;99.90;;;;;;5133811;27;20229;-79
2023/05/03 02:19:26;;;;;;;17.13;15.33;;;5.60;99.90;;;;;;5134155;27;20186;-78
2023/05/03 02:21:54;;;;;;;16.97;15.20;;;5.50;99.90;;;;;;5133509;27;20206;-78
2023/05/03 02:24:22;;;;;;;17.80;16.10;;;5.50;99.90;;;;;;5133747;27;20205;-77
2023/05/03 02:26:50;;;;;;;18.83;16.83;;;5.50;99.90;;;;;;5133338;27;20209;-78
2023/05/03 02:29:18;;;;;;;16.63;15.03;;;5.60;99.90;;;;;;5133195;27;20739;-79
2023/05/03 02:31:46;;;;;;;18.30;16.40;;;5.60;99.90;;;;;;5133291;27;20229;-78
2023/05/03 02:34:16;;;;;;;17.73;15.93;;;5.60;99.90;;;;;;5133454;27;20213;-77
2023/05/03 02:36:44;;;;;;;18.07;16.17;;;5.60;99.90;;;;;;5132786;27;20316;-77
2023/05/03 02:39:12;;;;;;;17.47;15.67;;;5.70;99.90;;;;;;5133359;27;20305;-76
2023/05/03 02:41:40;;;;;;;18.70;16.80;;;5.70;99.90;;;;;;5133316;27;20205;-78
2023/05/03 02:44:08;;;;;;;21.10;18.90;;;5.70;99.90;;;;;;5133620;27;20201;-76
2023/05/03 02:46:36;;;;;;;19.73;17.73;;;5.80;99.90;;;;;;5133903;27;20633;-76
2023/05/03 02:49:04;;;;;;;24.07;20.70;;;5.80;99.90;;;;;;5133430;27;20322;-75
2023/05/03 02:51:33;;;;;;;23.10;20.63;;;5.90;99.90;;;;;;5133411;27;20221;-75
2023/05/03 02:54:01;;;;;;;21.83;19.53;;;5.90;99.90;;;;;;5133323;27;20209;-80
2023/05/03 02:56:29;;;;;;;22.63;20.30;;;6.00;99.90;;;;;;5132899;27;20296;-77
2023/05/03 02:58:57;;;;;;;23.27;20.97;;;5.90;99.90;;;;;;5133388;27;20216;-79
2023/05/03 03:01:26;;;;;;;36.77;22.50;;;5.90;99.90;;;;;;5133630;27;20209;-79
2023/05/03 03:03:54;;;;;;;43.17;23.07;;;5.90;99.90;;;;;;5133503;27;20201;-76
2023/05/03 03:06:22;;;;;;;33.37;23.73;;;5.80;99.90;;;;;;5132998;28;20224;-78
2023/05/03 03:08:52;;;;;;;52.07;24.23;;;5.80;99.90;;;;;;5132969;28;20255;-78
2023/05/03 03:11:20;;;;;;;25.37;21.40;;;5.80;99.90;;;;;;5132952;28;20295;-78
2023/05/03 03:13:48;;;;;;;38.13;23.70;;;5.80;99.90;;;;;;5132796;27;20209;-78
2023/05/03 03:16:16;;;;;;;87.07;26.70;;;5.80;99.90;;;;;;5133096;28;20212;-78
2023/05/03 03:18:44;;;;;;;38.00;25.43;;;5.80;99.90;;;;;;5133187;28;20247;-78
2023/05/03 03:21:12;;;;;;;44.90;24.43;;;5.90;99.90;;;;;;5132611;27;20209;-78
2023/05/03 03:23:40;;;;;;;44.97;24.50;;;5.90;99.90;;;;;;5132491;28;20301;-75
2023/05/03 03:26:09;;;;;;;114.57;27.17;;;5.90;99.90;;;;;;5133382;28;20213;-75
2023/05/03 03:28:37;;;;;;;206.00;34.07;;;5.90;99.90;;;;;;5132761;27;20308;-78
2023/05/03 03:31:05;;;;;;;68.57;26.17;;;5.90;99.90;;;;;;5133109;28;20576;-78
2023/05/03 03:33:33;;;;;;;77.10;23.87;;;5.90;99.90;;;;;;5132951;28;20246;-77
2023/05/03 03:36:02;;;;;;;137.17;25.83;;;5.90;99.90;;;;;;5133325;28;20241;-78
2023/05/03 03:38:30;;;;;;;85.53;24.50;;;5.90;99.90;;;;;;5132900;27;20297;-77
2023/05/03 03:40:58;;;;;;;139.87;26.57;;;5.90;99.90;;;;;;5132791;28;20213;-77
2023/05/03 03:43:28;;;;;;;60.67;23.40;;;6.00;99.90;;;;;;5140509;27;20205;-74
2023/05/03 03:45:56;;;;;;;77.10;22.10;;;6.00;99.90;;;;;;5152160;27;20212;-76
2023/05/03 03:48:24;;;;;;;70.57;23.40;;;6.00;99.90;;;;;;5153095;27;20208;-78
2023/05/03 03:50:52;;;;;;;63.07;24.10;;;6.00;99.90;;;;;;5153365;27;20296;-78
2023/05/03 03:53:20;;;;;;;93.40;25.00;;;6.00;99.90;;;;;;5153123;27;20232;-78
2023/05/03 03:55:48;;;;;;;92.60;25.83;;;6.10;99.90;;;;;;5137901;27;20566;-79
2023/05/03 03:58:16;;;;;;;58.50;25.00;;;6.10;99.90;;;;;;5136772;27;20551;-79
2023/05/03 04:00:45;;;;;;;50.00;23.17;;;6.20;99.90;;;;;;5136889;27;20205;-78
2023/05/03 04:03:13;;;;;;;52.20;24.07;;;6.20;99.90;;;;;;5136992;27;20647;-79
2023/05/03 04:05:41;;;;;;;91.20;24.93;;;6.20;99.90;;;;;;5136106;27;20220;-77
2023/05/03 04:08:10;;;;;;;83.70;24.53;;;6.30;99.90;;;;;;5136240;27;20300;-75
2023/05/03 04:10:38;;;;;;;87.70;26.60;;;6.30;99.90;;;;;;5136138;27;20330;-77
2023/05/03 04:13:06;;;;;;;42.60;24.00;;;6.30;99.90;;;;;;5135889;27;20232;-75
2023/05/03 04:15:34;;;;;;;69.97;24.53;;;6.30;99.90;;;;;;5136880;27;20772;-76
2023/05/03 04:18:04;;;;;;;79.57;24.47;;;6.40;99.90;;;;;;5137452;27;20230;-77
2023/05/03 04:20:32;;;;;;;41.07;22.43;;;6.40;99.90;;;;;;5135936;27;20202;-76
2023/05/03 04:23:00;;;;;;;66.60;24.23;;;6.40;99.90;;;;;;5136016;27;20578;-77
2023/05/03 04:25:30;;;;;;;65.20;24.87;;;6.40;99.90;;;;;;5136065;27;20297;-77
2023/05/03 04:27:58;;;;;;;88.83;24.90;;;6.50;99.90;;;;;;5136155;27;20237;-76
2023/05/03 04:30:28;;;;;;;79.53;27.03;;;6.50;99.90;;;;;;5136332;27;20213;-79
2023/05/03 04:32:57;;;;;;;62.30;25.67;;;6.50;99.90;;;;;;5136401;27;20229;-76
2023/05/03 04:35:27;;;;;;;105.73;29.73;;;6.50;99.90;;;;;;5135954;27;20234;-76
2023/05/03 04:37:55;;;;;;;105.10;27.83;;;6.60;99.90;;;;;;5135515;27;20296;-77
2023/05/03 04:40:23;;;;;;;88.67;27.87;;;6.60;99.90;;;;;;5135969;27;20217;-76
2023/05/03 04:42:51;;;;;;;69.70;25.90;;;6.70;99.90;;;;;;5149804;27;20292;-74
2023/05/03 04:45:19;;;;;;;73.27;26.20;;;6.70;99.90;;;;;;5146397;27;20655;-76
2023/05/03 04:47:48;;;;;;;50.50;25.50;;;6.70;99.90;;;;;;5135898;27;20209;-76
2023/05/03 04:50:16;;;;;;;75.80;27.63;;;6.80;99.90;;;;;;5135240;27;20761;-75
2023/05/03 04:52:45;;;;;;;68.30;26.13;;;6.80;99.90;;;;;;5135260;27;20232;-77
2023/05/03 04:55:14;;;;;;;195.77;35.27;;;6.80;99.90;;;;;;5135771;27;20233;-76
2023/05/03 04:57:42;;;;;;;41.67;24.33;;;6.90;99.90;;;;;;5135593;27;20240;-76
2023/05/03 05:00:11;;;;;;;51.53;25.50;;;6.90;99.90;;;;;;5135454;27;20205;-76
2023/05/03 05:02:40;;;;;;;66.33;27.53;;;7.00;99.90;;;;;;5135145;27;20208;-77
2023/05/03 05:05:09;;;;;;;55.77;25.67;;;7.00;99.90;;;;;;5135537;27;20300;-78
2023/05/03 05:07:37;;;;;;;97.27;27.83;;;7.00;99.90;;;;;;5134374;27;20221;-77
2023/05/03 05:10:08;;;;;;;43.00;22.87;;;7.10;99.90;;;;;;5135068;27;20580;-77
2023/05/03 05:12:36;;;;;;;52.83;25.40;;;7.10;99.90;;;;;;5135103;27;20569;-77
2023/05/03 05:15:05;;;;;;;57.23;26.13;;;7.20;99.90;;;;;;5135298;27;20211;-75
2023/05/03 05:17:33;;;;;;;154.27;31.37;;;7.20;99.90;;;;;;5135324;27;20209;-78
2023/05/03 05:20:02;;;;;;;48.17;24.37;;;7.20;99.90;;;;;;5134982;27;20678;-77
2023/05/03 05:22:31;;;;;;;60.13;25.87;;;7.20;99.90;;;;;;5135306;27;20235;-76
2023/05/03 05:24:59;;;;;;;77.63;27.60;;;7.30;99.90;;;;;;5135336;27;20205;-74
2023/05/03 05:27:28;;;;;;;46.60;24.67;;;7.40;99.90;;;;;;5137870;27;20213;-74
2023/05/03 05:29:56;;;;;;;43.10;23.60;;;7.40;99.90;;;;;;5139580;27;20241;-78
2023/05/03 05:32:24;;;;;;;50.07;24.37;;;7.50;99.90;;;;;;5134337;27;20292;-75
2023/05/03 05:34:54;;;;;;;42.20;23.77;;;7.50;99.90;;;;;;5134451;27;20702;-76
2023/05/03 05:37:22;;;;;;;68.40;26.33;;;7.60;99.90;;;;;;5148158;27;20207;-76
2023/05/03 05:39:51;;;;;;;40.37;23.93;;;7.50;99.90;;;;;;5155605;27;20209;-75
2023/05/03 05:42:19;;;;;;;38.07;22.23;;;7.50;99.90;;;;;;5155112;27;20563;-78
2023/05/03 05:44:51;;;;;;;38.47;24.00;;;7.60;99.90;;;;;;5152907;27;20304;-77
2023/05/03 05:47:20;;;;;;;47.67;25.23;;;7.70;99.90;;;;;;5135720;27;20667;-78
2023/05/03 05:49:48;;;;;;;60.47;25.17;;;7.70;99.90;;;;;;5135232;27;20209;-76
2023/05/03 05:52:16;;;;;;;46.40;25.13;;;7.70;99.90;;;;;;5134669;27;20211;-78
2023/05/03 05:54:45;;;;;;;46.73;24.47;;;7.50;99.90;;;;;;5152367;27;20585;-74
2023/05/03 05:57:13;;;;;;;42.10;25.33;;;7.70;99.90;;;;;;5155931;27;20288;-76
2023/05/03 05:59:41;;;;;;;45.17;25.97;;;7.70;99.90;;;;;;5155808;27;20569;-77
2023/05/03 06:02:16;;;;;;;38.93;25.03;;;7.80;99.90;;;;;;5155354;27;20211;-77
2023/05/03 06:04:45;;;;;;;41.23;26.23;;;7.80;99.90;;;;;;5117207;27;20197;-77
2023/05/03 06:07:14;;;;;;;40.43;26.03;;;8.00;99.90;;;;;;5134418;27;20205;-76
2023/05/03 06:09:42;;;;;;;48.90;25.77;;;8.00;99.90;;;;;;5134329;27;20697;-78
2023/05/03 06:12:10;;;;;;;37.87;25.63;;;8.00;99.90;;;;;;5133508;27;20201;-73
2023/05/03 06:14:38;;;;;;;41.47;25.83;;;8.00;99.90;;;;;;5134322;27;20240;-78
2023/05/03 06:17:17;;;;;;;50.93;26.77;;;8.00;99.90;;;;;;5134226;27;20588;-77
2023/05/03 06:19:47;;;;;;;46.13;26.50;;;8.10;99.90;;;;;;5133651;27;20205;-75
2023/05/03 06:22:15;;;;;;;42.77;25.87;;;8.20;99.90;;;;;;5133657;27;20255;-78
2023/05/03 06:24:43;;;;;;;38.03;24.67;;;8.30;99.90;;;;;;5133980;27;20208;-74
2023/05/03 06:27:11;;;;;;;41.17;24.83;;;8.40;99.90;;;;;;5133769;27;20743;-75
2023/05/03 06:29:39;;;;;;;42.03;23.73;;;8.40;99.90;;;;;;5134229;27;20228;-75
2023/05/03 06:32:07;;;;;;;52.43;25.33;;;8.30;99.90;;;;;;5133826;27;20210;-77
2023/05/03 06:34:37;;;;;;;33.43;24.47;;;8.40;99.90;;;;;;5133595;27;20229;-76
2023/05/03 06:37:05;;;;;;;47.00;24.07;;;8.40;99.90;;;;;;5133724;27;20308;-78
2023/05/03 06:39:33;;;;;;;43.93;23.30;;;8.40;99.90;;;;;;5143768;27;20299;-78
2023/05/03 06:42:02;;;;;;;38.67;22.90;;;8.20;99.90;;;;;;5154397;27;20569;-76
2023/05/03 06:44:31;;;;;;;49.60;23.40;;;8.20;99.90;;;;;;5154183;27;20693;-75
2023/05/03 06:46:59;;;;;;;47.93;23.17;;;8.20;99.90;;;;;;5142569;27;20210;-77
2023/05/03 06:49:27;;;;;;;38.73;23.20;;;8.30;99.90;;;;;;5133521;27;20735;-78
2023/05/03 06:51:57;;;;;;;33.40;22.73;;;8.30;99.90;;;;;;5133521;27;20296;-78
2023/05/03 06:54:25;;;;;;;42.33;23.10;;;8.30;99.90;;;;;;5133527;27;20217;-77
2023/05/03 06:56:53;;;;;;;31.20;23.07;;;8.40;99.90;;;;;;5134688;27;20202;-75
2023/05/03 06:59:21;;;;;;;35.37;24.30;;;8.40;99.90;;;;;;5133550;27;20232;-76
2023/05/03 07:01:49;;;;;;;30.90;22.90;;;8.60;99.90;;;;;;5133150;27;20754;-77
2023/05/03 07:04:17;;;;;;;33.80;23.37;;;8.60;99.90;;;;;;5134038;27;20312;-73
2023/05/03 07:06:45;;;;;;;32.37;22.57;;;8.80;99.90;;;;;;5134634;27;20259;-76
2023/05/03 07:09:24;;;;;;;26.57;22.00;;;8.80;99.90;;;;;;5134058;28;20201;-76
2023/05/03 07:11:55;;;;;;;24.23;21.00;;;8.90;99.90;;;;;;5133974;28;20536;-75
2023/05/03 07:14:26;;;;;;;25.63;21.60;;;9.00;99.90;;;;;;5133167;27;20225;-76
2023/05/03 07:16:54;;;;;;;25.73;21.47;;;9.10;99.90;;;;;;5134001;28;20456;-75
2023/05/03 07:19:22;;;;;;;22.37;19.77;;;9.10;99.90;;;;;;5133563;28;20644;-78
2023/05/03 07:21:51;;;;;;;23.57;19.50;;;9.10;99.90;;;;;;5133069;27;20210;-76
2023/05/03 07:24:19;;;;;;;24.40;20.40;;;9.30;99.90;;;;;;5133556;28;20218;-75
2023/05/03 07:26:48;;;;;;;23.03;20.43;;;9.40;99.90;;;;;;5133283;28;20308;-75
2023/05/03 07:29:16;;;;;;;21.33;19.03;;;9.50;99.90;;;;;;5133864;27;20201;-73
2023/05/03 07:31:44;;;;;;;21.43;19.23;;;9.60;99.90;;;;;;5137787;27;20273;-75
2023/05/03 07:34:13;;;;;;;19.90;17.80;;;9.80;99.90;;;;;;5137616;27;20288;-79
2023/05/03 07:36:41;;;;;;;19.43;17.43;;;9.90;99.90;;;;;;5137637;27;20225;-76
2023/05/03 07:39:09;;;;;;;21.20;17.83;;;10.00;99.90;;;;;;5156348;27;20239;-77
2023/05/03 07:41:37;;;;;;;20.23;17.90;;;10.10;99.90;;;;;;5140569;27;20216;-76
2023/05/03 07:44:07;;;;;;;19.40;17.33;;;10.10;99.90;;;;;;5137306;27;20202;-75
2023/05/03 07:46:35;;;;;;;20.30;17.50;;;10.10;99.90;;;;;;5137356;27;20229;-76
2023/05/03 07:49:05;;;;;;;20.80;17.93;;;10.20;99.90;;;;;;5136627;27;20247;-77
2023/05/03 07:51:36;;;;;;;19.10;17.10;;;10.30;99.90;;;;;;5137329;27;20223;-79
2023/05/03 07:54:04;;;;;;;19.50;17.37;;;10.50;99.90;;;;;;5136311;27;20213;-72
2023/05/03 07:56:32;;;;;;;22.97;19.50;;;10.50;99.90;;;;;;5136942;27;20201;-76
2023/05/03 07:59:00;;;;;;;20.40;18.07;;;10.70;99.90;;;;;;5137043;27;20209;-78
2023/05/03 08:01:32;;;;;;;20.87;17.43;;;10.90;99.90;;;;;;5136963;27;20675;-76
2023/05/03 08:04:00;;;;;;;23.60;19.60;;;11.10;99.90;;;;;;5136529;27;20304;-77
2023/05/03 08:06:30;;;;;;;24.40;20.43;;;11.10;99.90;;;;;;5136910;27;20214;-76
2023/05/03 08:08:58;;;;;;;24.30;21.03;;;11.00;99.90;;;;;;5136657;27;20209;-77
2023/05/03 08:11:27;;;;;;;23.07;19.93;;;11.00;99.90;;;;;;5136466;27;20225;-78
2023/05/03 08:13:55;;;;;;;22.33;19.93;;;11.00;99.90;;;;;;5143129;27;20201;-76
2023/05/03 08:16:23;;;;;;;26.13;23.30;;;11.00;99.90;;;;;;5157025;27;20710;-79
2023/05/03 08:18:53;;;;;;;26.10;22.63;;;11.10;99.90;;;;;;5156831;27;20414;-78
2023/05/03 08:21:23;;;;;;;25.10;21.63;;;11.00;99.90;;;;;;5157337;27;20235;-76
2023/05/03 08:23:52;;;;;;;29.33;24.30;;;11.10;99.90;;;;;;5146264;27;20297;-77
2023/05/03 08:26:23;;;;;;;27.03;24.10;;;11.00;99.90;;;;;;5138581;27;20241;-76
2023/05/03 08:28:51;;;;;;;27.67;24.77;;;10.90;99.90;;;;;;5139421;27;20658;-75
2023/05/03 08:31:19;;;;;;;28.10;25.20;;;10.80;99.90;;;;;;5137846;27;20265;-77
2023/05/03 08:33:47;;;;;;;28.90;25.90;;;10.80;99.90;;;;;;5135960;27;20216;-76
2023/05/03 08:36:17;;;;;;;29.13;26.03;;;10.80;99.90;;;;;;5142007;27;20225;-78
2023/05/03 08:38:45;;;;;;;29.67;26.57;;;10.80;99.90;;;;;;5157022;27;20294;-77
2023/05/03 08:41:21;;;;;;;30.40;27.20;;;10.80;99.90;;;;;;5136002;27;20298;-77
2023/05/03 08:43:53;;;;;;;30.70;27.40;;;10.90;99.90;;;;;;5135453;27;20689;-77
2023/05/03 08:46:24;;;;;;;30.43;27.23;;;11.10;99.90;;;;;;5136050;27;20575;-78
2023/05/03 08:48:53;;;;;;;30.03;26.87;;;11.20;99.90;;;;;;5135474;27;20601;-77
2023/05/03 08:51:24;;;;;;;30.80;27.60;;;11.30;99.90;;;;;;5137440;27;20209;-74
2023/05/03 08:53:52;;;;;;;28.77;25.87;;;11.50;99.90;;;;;;5135588;27;20617;-72
2023/05/03 08:56:28;;;;;;;31.60;28.33;;;11.40;99.90;;;;;;5136151;27;20249;-77
2023/05/03 08:59:03;;;;;;;32.77;29.27;;;11.40;99.90;;;;;;5135688;27;20231;-79
2023/05/03 09:01:32;;;;;;;31.90;28.10;;;11.50;99.90;;;;;;5135852;27;20285;-76
2023/05/03 09:04:00;;;;;;;33.43;30.03;;;11.50;99.90;;;;;;5135570;27;20270;-73
2023/05/03 09:06:31;;;;;;;33.90;30.23;;;11.20;99.90;;;;;;5135712;27;20216;-78
2023/05/03 09:09:01;;;;;;;33.77;30.27;;;11.20;99.90;;;;;;5135688;27;20288;-78
2023/05/03 09:11:30;;;;;;;34.97;31.30;;;11.20;99.90;;;;;;5135601;27;20288;-77
2023/05/03 09:14:08;;;;;;;34.00;30.50;;;11.30;99.90;;;;;;5135153;27;20300;-75
2023/05/03 09:16:37;;;;;;;34.97;31.37;;;11.50;99.90;;;;;;5135449;27;20309;-74
2023/05/03 09:19:08;;;;;;;36.20;32.40;;;11.60;99.90;;;;;;5135840;27;20214;-76
2023/05/03 09:21:38;;;;;;;36.33;32.53;;;11.40;99.90;;;;;;5145887;27;20244;-77
2023/05/03 09:24:13;;;;;;;38.03;34.03;;;11.40;99.90;;;;;;5135860;27;20225;-76
2023/05/03 09:26:42;;;;;;;38.77;34.77;;;11.60;99.90;;;;;;5135780;27;20213;-78
2023/05/03 09:29:10;;;;;;;40.07;35.80;;;11.50;99.90;;;;;;5136123;27;20217;-77
2023/05/03 09:31:59;;;;;;;37.80;33.90;;;11.60;99.90;;;;;;5140582;27;20620;-77
2023/05/03 09:34:27;;;;;;;37.17;33.30;;;11.70;99.90;;;;;;5138090;27;20295;-76
2023/05/03 09:36:57;;;;;;;35.03;31.43;;;11.80;99.90;;;;;;5155748;27;20229;-75
2023/05/03 09:39:25;;;;;;;34.90;31.40;;;11.80;99.90;;;;;;5154228;27;20211;-75
2023/05/03 09:41:53;;;;;;;34.43;31.00;;;11.80;99.90;;;;;;5135124;27;20231;-74
2023/05/03 09:44:41;;;;;;;32.37;28.97;;;11.80;99.90;;;;;;5135344;27;20214;-77
2023/05/03 09:47:10;;;;;;;34.20;30.90;;;12.00;99.90;;;;;;5116801;27;20208;-77
2023/05/03 09:49:39;;;;;;;35.40;32.00;;;12.30;99.90;;;;;;5135170;27;20235;-77
2023/05/03 09:52:09;;;;;;;34.40;30.97;;;12.40;99.90;;;;;;5134221;27;20209;-77
2023/05/03 09:54:38;;;;;;;35.90;32.40;;;12.60;99.90;;;;;;5135126;27;20198;-77
2023/05/03 09:57:08;;;;;;;35.00;31.50;;;12.80;99.90;;;;;;5134771;27;20221;-75
2023/05/03 09:59:37;;;;;;;35.93;32.33;;;12.90;99.90;;;;;;5135115;27;20567;-77
2023/05/03 10:02:07;;;;;;;34.87;31.13;;;12.80;99.90;;;;;;5134262;27;20205;-75
2023/05/03 10:04:42;;;;;;;35.00;31.47;;;13.10;99.90;;;;;;5134745;27;20300;-76
2023/05/03 10:07:14;;;;;;;33.63;30.30;;;13.10;99.90;;;;;;5134557;27;20205;-74
2023/05/03 10:09:44;;;;;;;30.50;27.57;;;13.40;99.90;;;;;;5134283;27;20681;-76
2023/05/03 10:12:16;;;;;;;30.10;27.30;;;13.40;99.90;;;;;;5134341;27;20559;-75
2023/05/03 10:14:46;;;;;;;29.27;26.47;;;13.40;99.90;;;;;;5134509;27;20630;-74
2023/05/03 10:17:18;;;;;;;28.90;26.17;;;13.50;99.90;;;;;;5134151;27;20705;-77
2023/05/03 10:19:52;;;;;;;26.37;23.97;;;13.50;99.90;;;;;;5134245;27;20216;-76
2023/05/03 10:22:22;;;;;;;23.90;21.10;;;14.10;99.90;;;;;;5134076;27;20790;-75
2023/05/03 10:25:09;;;;;;;20.83;18.97;;;14.80;99.90;;;;;;5134241;27;20296;-75
2023/05/03 10:27:50;;;;;;;17.57;15.97;;;15.90;99.90;;;;;;5134075;27;20610;-75
2023/05/03 10:30:30;;;;;;;19.00;17.30;;;16.80;99.90;;;;;;5134152;27;20228;-76
2023/05/03 10:32:58;;;;;;;19.47;17.63;;;16.90;99.90;;;;;;5135503;27;20205;-77
2023/05/03 10:35:30;;;;;;;18.13;16.43;;;16.80;99.90;;;;;;5137922;27;20282;-75
2023/05/03 10:38:10;;;;;;;14.13;12.87;;;17.40;99.90;;;;;;5133953;27;20190;-77
2023/05/03 10:40:42;;;;;;;14.27;13.07;;;18.10;99.90;;;;;;5133777;27;20212;-75
2023/05/03 10:43:47;;;;;;;16.17;14.67;;;19.60;99.90;;;;;;5133342;27;20215;-73
2023/05/03 10:46:33;;;;;;;15.03;13.77;;;20.30;99.90;;;;;;5127556;27;20197;-73
2023/05/03 10:49:20;;;;;;;14.17;12.77;;;20.00;99.90;;;;;;5134039;27;20209;-75
2023/05/03 10:51:49;;;;;;;14.32;13.02;;;21.40;99.90;;;;;;5133623;27;20271;-74
2023/05/03 10:54:19;;;;;;;13.35;12.15;;;22.40;99.90;;;;;;5133379;27;20202;-72
2023/05/03 10:56:55;;;;;;;13.45;12.15;;;22.70;99.20;;;;;;5133700;27;20252;-74
2023/05/03 10:59:24;;;;;;;12.20;11.13;;;22.00;99.10;;;;;;5133118;27;20197;-73
2023/05/03 11:01:53;;;;;;;12.57;11.48;;;22.00;99.90;;;;;;5133376;27;20470;-75
2023/05/03 11:04:39;;;;;;;12.35;11.35;;;22.60;99.20;;;;;;5132523;27;20206;-75
2023/05/03 11:07:08;;;;;;;11.68;10.60;;;22.40;99.90;;;;;;5133339;27;20208;-72
2023/05/03 11:09:38;;;;;;;11.40;10.10;;;22.90;99.40;;;;;;5133565;27;20621;-75
2023/05/03 11:12:08;;;;;;;11.00;10.07;;;23.10;97.90;;;;;;5133865;28;20288;-75
2023/05/03 11:14:38;;;;;;;10.57;9.57;;;23.70;98.30;;;;;;5133868;28;20205;-74
2023/05/03 11:17:06;;;;;;;9.52;8.73;;;22.60;93.50;;;;;;5133114;28;20228;-75
2023/05/03 11:19:35;;;;;;;9.15;8.35;;;21.40;98.30;;;;;;5142717;27;20228;-74
2023/05/03 11:22:03;;;;;;;9.25;8.40;;;21.00;98.70;;;;;;5153663;27;20201;-74
2023/05/03 11:24:31;;;;;;;9.63;8.73;;;20.30;99.90;;;;;;5154131;27;20216;-74
2023/05/03 11:27:01;;;;;;;8.70;7.90;;;19.80;98.70;;;;;;5151891;27;20201;-74
2023/05/03 11:29:36;;;;;;;9.93;9.00;;;19.50;99.90;;;;;;5133245;28;20189;-75
2023/05/03 11:32:08;;;;;;;11.13;10.13;;;19.30;99.90;;;;;;5139462;27;20557;-75
2023/05/03 11:34:36;;;;;;;12.73;11.63;;;18.60;99.90;;;;;;5154532;27;20239;-75
2023/05/03 11:37:04;;;;;;;12.23;11.13;;;17.80;99.90;;;;;;5135530;27;20233;-78
2023/05/03 11:39:32;;;;;;;12.50;11.20;;;17.20;99.90;;;;;;5132998;28;20209;-77
2023/05/03 11:42:03;;;;;;;13.53;12.33;;;17.10;99.90;;;;;;5132660;28;20741;-78
2023/05/03 11:44:31;;;;;;;13.53;11.30;;;16.70;99.90;;;;;;5136617;27;20287;-75
2023/05/03 11:47:00;;;;;;;13.77;12.07;;;16.50;99.90;;;;;;5153704;27;20200;-77
2023/05/03 11:49:29;;;;;;;14.53;12.37;;;16.30;99.90;;;;;;5153673;27;20209;-77
2023/05/03 11:51:57;;;;;;;13.90;12.50;;;16.00;99.90;;;;;;5153538;27;20304;-75
2023/05/03 11:54:27;;;;;;;13.23;11.83;;;16.10;99.90;;;;;;5133189;27;20217;-77
2023/05/03 11:56:57;;;;;;;13.20;11.93;;;16.10;99.90;;;;;;5133030;28;20794;-75
2023/05/03 11:59:38;;;;;;;12.77;11.53;;;16.10;99.90;;;;;;5132588;28;20258;-76
2023/05/03 12:02:09;;;;;;;10.53;9.60;;;16.10;99.90;;;;;;5141157;27;20201;-75
2023/05/03 12:04:39;;;;;;;10.10;9.20;;;16.90;99.90;;;;;;5153358;27;20209;-75
2023/05/03 12:07:10;;;;;;;10.53;9.53;;;17.60;99.90;;;;;;5153282;27;20686;-78
2023/05/03 12:09:39;;;;;;;9.93;8.93;;;17.70;99.90;;;;;;5153178;27;20240;-76
2023/05/03 12:12:10;;;;;;;9.60;8.70;;;18.10;99.90;;;;;;5140335;27;20209;-74
2023/05/03 12:15:01;;;;;;;11.90;9.07;;;18.40;99.90;;;;;;5133178;27;20225;-76
2023/05/03 12:17:35;;;;;;;9.63;8.73;;;18.20;99.90;;;;;;5137360;27;20225;-75
2023/05/03 12:20:17;;;;;;;10.60;8.77;;;18.10;99.90;;;;;;5147803;27;20287;-76
2023/05/03 12:22:49;;;;;;;10.73;9.73;;;18.10;99.90;;;;;;5156831;27;20197;-75
2023/05/03 12:25:20;;;;;;;10.13;9.13;;;18.10;99.90;;;;;;5159589;27;20288;-74
2023/05/03 12:27:52;;;;;;;10.63;9.67;;;18.50;99.90;;;;;;5161839;27;20212;-76
2023/05/03 12:30:42;;;;;;;10.40;9.40;;;17.70;99.90;;;;;;5146619;27;20213;-74
2023/05/03 12:33:14;;;;;;;10.07;8.07;;;18.20;99.90;;;;;;5148339;27;20209;-75
2023/05/03 12:35:43;;;;;;;9.27;8.37;;;18.60;99.90;;;;;;5140133;27;20237;-76
2023/05/03 12:38:15;;;;;;;8.53;7.60;;;18.70;99.90;;;;;;5140031;27;20245;-76
2023/05/03 12:40:45;;;;;;;8.73;7.67;;;19.10;99.90;;;;;;5136288;27;20667;-75
2023/05/03 12:43:13;;;;;;;8.30;7.03;;;19.00;99.90;;;;;;5150034;27;20293;-74
2023/05/03 12:45:43;;;;;;;8.27;7.20;;;19.10;99.90;;;;;;5156395;27;20209;-76
2023/05/03 12:48:25;;;;;;;7.97;7.07;;;19.30;99.90;;;;;;5146962;27;20208;-76
2023/05/03 12:50:54;;;;;;;8.20;7.40;;;19.70;99.90;;;;;;5135940;27;20296;-76
2023/05/03 12:53:42;;;;;;;8.10;6.77;;;19.80;99.90;;;;;;5135112;27;20217;-78
2023/05/03 12:56:14;;;;;;;7.10;6.40;;;19.10;99.90;;;;;;5135600;27;20190;-76